createdAt,value
2022-10-10T00:00:51.965Z,13.58
2022-10-10T00:03:19.864Z,13.52
2022-10-10T00:05:46.442Z,13.56
2022-10-10T00:08:13.146Z,13.48
2022-10-10T00:10:39.661Z,13.51
2022-10-10T00:13:06.263Z,13.45
2022-10-10T00:15:33.328Z,13.39
2022-10-10T00:18:00.235Z,13.42
2022-10-10T00:20:27.153Z,13.41
2022-10-10T00:22:54.332Z,13.41
2022-10-10T00:25:20.877Z,13.38
2022-10-10T00:27:47.438Z,13.35
2022-10-10T00:30:14.093Z,13.45
2022-10-10T00:32:40.693Z,13.42
2022-10-10T00:35:07.629Z,13.44
2022-10-10T00:37:34.140Z,13.43
2022-10-10T00:40:00.662Z,13.42
2022-10-10T00:42:27.161Z,13.44
2022-10-10T00:45:24.480Z,13.40
2022-10-10T00:47:56.913Z,13.32
2022-10-10T00:50:24.805Z,13.27
2022-10-10T00:52:52.187Z,13.24
2022-10-10T00:55:19.429Z,13.31
2022-10-10T00:57:46.448Z,13.23
2022-10-10T01:00:13.843Z,13.24
2022-10-10T01:02:40.557Z,13.29
2022-10-10T01:05:07.356Z,13.29
2022-10-10T01:07:34.588Z,13.27
2022-10-10T01:10:11.813Z,13.33
2022-10-10T01:13:03.006Z,13.37
2022-10-10T01:15:35.737Z,13.37
2022-10-10T01:18:30.057Z,13.38
2022-10-10T01:21:13.240Z,13.34
2022-10-10T01:24:17.647Z,13.44
2022-10-10T01:27:06.517Z,13.43
2022-10-10T01:29:39.060Z,13.44
2022-10-10T01:32:13.464Z,13.46
2022-10-10T01:35:14.426Z,13.45
2022-10-10T01:37:56.778Z,13.41
2022-10-10T01:41:04.746Z,13.38
2022-10-10T01:43:31.424Z,13.33
2022-10-10T01:45:58.180Z,13.30
2022-10-10T01:48:30.245Z,13.36
2022-10-10T01:51:15.218Z,13.34
2022-10-10T01:54:23.148Z,13.34
2022-10-10T01:57:05.159Z,13.41
2022-10-10T01:59:40.602Z,13.42
2022-10-10T02:02:40.502Z,13.40
2022-10-10T02:05:14.070Z,13.32
2022-10-10T02:07:57.274Z,13.38
2022-10-10T02:10:31.315Z,13.36
2022-10-10T02:12:59.494Z,13.25
2022-10-10T02:15:31.548Z,13.20
2022-10-10T02:18:00.391Z,13.34
2022-10-10T02:20:29.224Z,13.29
2022-10-10T02:22:56.634Z,13.23
2022-10-10T02:25:29.472Z,13.22
2022-10-10T02:28:11.389Z,13.19
2022-10-10T02:30:43.004Z,13.19
2022-10-10T02:33:10.885Z,13.13
2022-10-10T02:35:42.789Z,13.15
2022-10-10T02:38:12.945Z,13.11
2022-10-10T02:40:41.739Z,13.12
2022-10-10T02:43:11.036Z,13.12
2022-10-10T02:45:39.598Z,13.13
2022-10-10T02:48:06.585Z,13.08
2022-10-10T02:50:34.055Z,13.09
2022-10-10T02:53:00.570Z,13.09
2022-10-10T02:55:27.255Z,13.20
2022-10-10T02:57:54.090Z,13.18
2022-10-10T03:00:20.703Z,13.18
2022-10-10T03:02:47.378Z,13.22
2022-10-10T03:05:14.339Z,13.18
2022-10-10T03:07:40.859Z,13.14
2022-10-10T03:10:07.786Z,13.24
2022-10-10T03:12:35.485Z,13.27
2022-10-10T03:15:02.284Z,13.23
2022-10-10T03:17:28.913Z,13.27
2022-10-10T03:19:55.404Z,13.27
2022-10-10T03:22:22.040Z,13.34
2022-10-10T03:24:48.588Z,13.27
2022-10-10T03:27:15.179Z,13.34
2022-10-10T03:29:41.659Z,13.36
2022-10-10T03:32:11.031Z,13.32
2022-10-10T03:34:37.912Z,13.36
2022-10-10T03:37:04.700Z,13.29
2022-10-10T03:39:31.235Z,13.25
2022-10-10T03:41:57.878Z,13.22
2022-10-10T03:44:24.518Z,13.21
2022-10-10T03:46:51.021Z,13.19
2022-10-10T03:49:17.755Z,13.20
2022-10-10T03:51:44.305Z,13.27
2022-10-10T03:54:10.936Z,13.28
2022-10-10T03:56:37.491Z,13.24
2022-10-10T03:59:06.135Z,13.23
2022-10-10T04:01:33.432Z,13.17
2022-10-10T04:04:00.265Z,13.28
2022-10-10T04:06:27.697Z,13.18
2022-10-10T04:08:54.244Z,13.23
2022-10-10T04:11:21.010Z,13.20
2022-10-10T04:13:47.710Z,13.23
2022-10-10T04:16:14.581Z,13.23
2022-10-10T04:18:41.134Z,13.27
2022-10-10T04:21:07.668Z,13.41
2022-10-10T04:23:35.174Z,13.43
2022-10-10T04:26:01.865Z,13.42
2022-10-10T04:28:28.404Z,13.45
2022-10-10T04:30:56.692Z,13.48
2022-10-10T04:33:23.363Z,13.39
2022-10-10T04:35:50.466Z,13.42
2022-10-10T04:38:17.972Z,13.37
2022-10-10T04:40:44.526Z,13.52
2022-10-10T04:43:11.078Z,13.46
2022-10-10T04:45:37.895Z,13.40
2022-10-10T04:48:05.001Z,13.43
2022-10-10T04:50:31.611Z,13.53
2022-10-10T04:52:58.140Z,13.47
2022-10-10T04:55:24.677Z,13.54
2022-10-10T04:57:51.220Z,13.38
2022-10-10T05:00:17.739Z,13.45
2022-10-10T05:02:44.209Z,13.46
2022-10-10T05:05:11.038Z,13.46
2022-10-10T05:07:37.983Z,13.48
2022-10-10T05:10:06.177Z,13.43
2022-10-10T05:12:33.226Z,13.41
2022-10-10T05:14:59.885Z,13.44
2022-10-10T05:17:26.433Z,13.39
2022-10-10T05:19:53.846Z,13.27
2022-10-10T05:22:20.549Z,13.29
2022-10-10T05:24:47.084Z,13.29
2022-10-10T05:27:13.834Z,13.16
2022-10-10T05:29:40.890Z,13.18
2022-10-10T05:32:10.270Z,13.21
2022-10-10T05:34:40.589Z,13.22
2022-10-10T05:37:09.368Z,13.18
2022-10-10T05:39:41.555Z,13.23
2022-10-10T05:42:11.288Z,13.23
2022-10-10T05:44:37.746Z,13.21
2022-10-10T05:47:04.499Z,13.15
2022-10-10T05:49:30.976Z,13.17
2022-10-10T05:51:57.522Z,13.21
2022-10-10T05:54:24.560Z,13.21
2022-10-10T05:56:50.991Z,13.30
2022-10-10T05:59:17.455Z,13.21
2022-10-10T06:01:43.903Z,13.27
2022-10-10T06:04:10.325Z,13.36
2022-10-10T06:06:36.778Z,13.34
2022-10-10T06:09:03.842Z,13.35
2022-10-10T06:11:30.301Z,13.24
2022-10-10T06:13:57.302Z,13.22
2022-10-10T06:16:26.195Z,13.27
2022-10-10T06:18:53.212Z,13.33
2022-10-10T06:21:20.407Z,13.41
2022-10-10T06:23:46.853Z,13.39
2022-10-10T06:26:13.285Z,13.24
2022-10-10T06:28:39.744Z,13.31
2022-10-10T06:31:08.477Z,13.33
2022-10-10T06:33:37.228Z,13.36
2022-10-10T06:36:08.185Z,13.36
2022-10-10T06:38:39.343Z,13.29
2022-10-10T06:41:07.114Z,13.35
2022-10-10T06:43:34.279Z,13.32
2022-10-10T06:46:02.185Z,13.38
2022-10-10T06:48:34.748Z,13.34
2022-10-10T06:51:04.917Z,13.42
2022-10-10T06:53:32.202Z,13.38
2022-10-10T06:55:59.229Z,13.41
2022-10-10T06:58:27.821Z,13.57
2022-10-10T07:00:56.681Z,13.60
2022-10-10T07:03:23.756Z,13.69
2022-10-10T07:05:52.501Z,13.74
2022-10-10T07:08:19.916Z,13.72
2022-10-10T07:10:47.163Z,13.71
2022-10-10T07:13:14.192Z,13.72
2022-10-10T07:15:40.715Z,13.63
2022-10-10T07:18:07.953Z,13.56
2022-10-10T07:20:35.384Z,13.44
2022-10-10T07:23:02.863Z,13.39
2022-10-10T07:25:29.321Z,13.45
2022-10-10T07:27:56.988Z,13.52
2022-10-10T07:30:25.215Z,13.57
2022-10-10T07:32:55.484Z,13.67
2022-10-10T07:35:23.094Z,13.76
2022-10-10T07:37:54.241Z,13.84
2022-10-10T07:40:20.718Z,13.99
2022-10-10T07:42:47.227Z,14.01
2022-10-10T07:45:13.897Z,14.20
2022-10-10T07:47:40.813Z,14.26
2022-10-10T07:50:08.071Z,14.36
2022-10-10T07:52:35.529Z,14.35
2022-10-10T07:55:04.107Z,14.44
2022-10-10T07:57:34.954Z,14.31
2022-10-10T08:00:07.998Z,14.57
2022-10-10T08:02:34.762Z,14.63
2022-10-10T08:05:01.182Z,14.97
2022-10-10T08:07:28.082Z,15.97
2022-10-10T08:09:54.567Z,16.42
2022-10-10T08:12:21.459Z,16.87
2022-10-10T08:14:47.949Z,17.07
2022-10-10T08:17:14.479Z,18.15
2022-10-10T08:19:40.917Z,18.03
2022-10-10T08:22:07.627Z,17.79
2022-10-10T08:24:34.087Z,17.77
2022-10-10T08:27:00.511Z,17.31
2022-10-10T08:29:27.003Z,16.76
2022-10-10T08:31:53.468Z,16.33
2022-10-10T08:34:19.990Z,16.30
2022-10-10T08:36:46.420Z,16.69
2022-10-10T08:39:12.889Z,18.57
2022-10-10T08:41:49.801Z,19.47
2022-10-10T08:44:20.033Z,19.90
2022-10-10T08:46:59.590Z,20.25
2022-10-10T08:49:37.175Z,21.04
2022-10-10T08:52:41.101Z,21.62
2022-10-10T08:55:18.758Z,22.40
2022-10-10T08:57:51.377Z,22.10
2022-10-10T09:00:22.139Z,22.69
2022-10-10T09:02:56.499Z,23.31
2022-10-10T09:05:56.172Z,23.03
2022-10-10T09:08:33.892Z,24.40
2022-10-10T09:11:22.925Z,23.35
2022-10-10T09:14:34.952Z,24.15
2022-10-10T09:17:26.088Z,24.56
2022-10-10T09:20:21.868Z,24.63
2022-10-10T09:23:07.808Z,25.29
2022-10-10T09:25:40.269Z,25.92
2022-10-10T09:28:13.585Z,25.98
2022-10-10T09:30:45.234Z,26.48
2022-10-10T09:33:27.427Z,26.42
2022-10-10T09:35:57.683Z,25.54
2022-10-10T09:38:35.673Z,26.35
2022-10-10T09:41:05.342Z,26.61
2022-10-10T09:43:34.280Z,26.30
2022-10-10T09:46:01.568Z,26.96
2022-10-10T09:48:32.864Z,27.13
2022-10-10T09:51:01.351Z,27.39
2022-10-10T09:53:28.161Z,27.61
2022-10-10T09:55:54.983Z,27.91
2022-10-10T09:58:30.142Z,27.99
2022-10-10T10:01:20.388Z,27.63
2022-10-10T10:04:23.396Z,27.37
2022-10-10T10:07:07.311Z,26.74
2022-10-10T10:09:34.183Z,27.61
2022-10-10T10:12:01.682Z,27.97
2022-10-10T10:14:37.124Z,27.87
2022-10-10T10:17:29.979Z,28.85
2022-10-10T10:19:56.489Z,28.49
2022-10-10T10:22:38.570Z,28.79
2022-10-10T10:25:32.968Z,28.83
2022-10-10T10:28:11.643Z,28.17
2022-10-10T10:30:39.764Z,28.90
2022-10-10T10:33:41.428Z,27.76
2022-10-10T10:36:32.636Z,28.73
2022-10-10T10:39:13.899Z,28.98
2022-10-10T10:41:53.991Z,29.55
2022-10-10T10:44:38.559Z,29.69
2022-10-10T10:48:01.226Z,29.53
2022-10-10T10:50:38.299Z,29.73
2022-10-10T10:53:18.891Z,30.17
2022-10-10T10:56:02.233Z,28.92
2022-10-10T11:01:58.027Z,30.54
2022-10-10T11:05:25.201Z,30.61
2022-10-10T11:07:22.241Z,29.89
2022-10-10T11:09:51.454Z,30.40
2022-10-10T11:12:33.659Z,30.33
2022-10-10T11:15:10.569Z,30.40
2022-10-10T11:17:45.332Z,30.41
2022-10-10T11:20:45.621Z,30.30
2022-10-10T11:23:18.674Z,30.38
2022-10-10T11:26:03.236Z,30.87
2022-10-10T11:28:40.084Z,30.90
2022-10-10T11:31:17.181Z,30.87
2022-10-10T11:33:54.300Z,30.96
2022-10-10T11:36:26.516Z,30.56
2022-10-10T11:39:16.799Z,30.35
2022-10-10T11:41:54.280Z,30.26
2022-10-10T11:44:39.677Z,31.00
2022-10-10T11:47:28.230Z,30.85
2022-10-10T11:50:03.804Z,31.25
2022-10-10T11:52:48.527Z,31.78
2022-10-10T11:55:31.384Z,31.97
2022-10-10T11:58:07.081Z,31.54
2022-10-10T12:00:57.868Z,31.86
2022-10-10T12:03:26.318Z,32.12
2022-10-10T12:06:00.518Z,32.09
2022-10-10T12:08:43.477Z,31.59
2022-10-10T12:11:13.265Z,31.57
2022-10-10T12:13:45.092Z,31.68
2022-10-10T12:16:19.342Z,31.34
2022-10-10T12:18:51.886Z,31.44
2022-10-10T12:21:19.778Z,31.09
2022-10-10T12:24:00.559Z,31.07
2022-10-10T12:26:55.060Z,31.38
2022-10-10T12:29:41.755Z,31.31
2022-10-10T12:32:14.307Z,31.76
2022-10-10T12:34:42.477Z,31.55
2022-10-10T12:37:26.503Z,31.59
2022-10-10T12:40:05.270Z,31.21
2022-10-10T12:42:46.908Z,30.98
2022-10-10T12:45:28.633Z,31.40
2022-10-10T12:48:07.090Z,31.25
2022-10-10T12:50:40.417Z,31.17
2022-10-10T12:53:12.947Z,31.09
2022-10-10T12:55:44.004Z,30.88
2022-10-10T12:58:26.527Z,29.91
2022-10-10T13:00:55.778Z,30.36
2022-10-10T13:03:31.697Z,30.88
2022-10-10T13:06:35.529Z,30.59
2022-10-10T13:09:07.607Z,30.08
2022-10-10T13:11:50.631Z,29.74
2022-10-10T13:14:17.059Z,29.24
2022-10-10T13:16:44.513Z,28.95
2022-10-10T13:19:19.728Z,29.29
2022-10-10T13:21:47.166Z,29.23
2022-10-10T13:24:17.745Z,29.45
2022-10-10T13:26:50.439Z,28.74
2022-10-10T13:29:22.026Z,28.59
2022-10-10T13:31:50.041Z,28.79
2022-10-10T13:34:23.480Z,28.42
2022-10-10T13:36:57.760Z,28.17
2022-10-10T13:39:25.359Z,28.21
2022-10-10T13:41:53.762Z,28.28
2022-10-10T13:44:30.525Z,28.33
2022-10-10T13:46:57.076Z,28.19
2022-10-10T13:49:27.261Z,28.02
2022-10-10T13:52:21.539Z,27.44
2022-10-10T13:54:49.026Z,28.05
2022-10-10T13:57:19.665Z,28.13
2022-10-10T13:59:49.518Z,28.13
2022-10-10T14:02:19.049Z,28.23
2022-10-10T14:04:50.776Z,27.51
2022-10-10T14:07:22.100Z,27.54
2022-10-10T14:09:59.090Z,27.58
2022-10-10T14:12:35.810Z,26.89
2022-10-10T14:15:04.950Z,26.71
2022-10-10T14:17:31.484Z,26.50
2022-10-10T14:19:58.011Z,26.31
2022-10-10T14:22:24.513Z,26.25
2022-10-10T14:24:50.986Z,26.13
2022-10-10T14:27:26.923Z,26.22
2022-10-10T14:29:55.965Z,25.55
2022-10-10T14:32:23.005Z,25.54
2022-10-10T14:34:49.637Z,25.30
2022-10-10T14:37:17.819Z,25.13
2022-10-10T14:39:44.597Z,24.78
2022-10-10T14:42:13.338Z,24.85
2022-10-10T14:44:39.822Z,24.81
2022-10-10T14:47:07.159Z,24.92
2022-10-10T14:49:33.626Z,24.73
2022-10-10T14:52:01.457Z,24.54
2022-10-10T14:54:27.890Z,24.42
2022-10-10T14:57:08.899Z,24.56
2022-10-10T14:59:47.260Z,24.13
2022-10-10T15:02:21.775Z,24.27
2022-10-10T15:04:49.201Z,24.18
2022-10-10T15:07:16.190Z,23.83
2022-10-10T15:12:36.077Z,23.76
2022-10-10T15:15:02.872Z,23.59
2022-10-10T15:17:31.024Z,23.37
2022-10-10T15:19:57.531Z,23.36
2022-10-10T15:22:24.051Z,23.35
2022-10-10T15:24:50.527Z,23.20
2022-10-10T15:27:16.938Z,23.38
2022-10-10T15:29:43.381Z,23.37
2022-10-10T15:32:09.828Z,23.51
2022-10-10T15:34:36.498Z,23.51
2022-10-10T15:37:03.034Z,23.50
2022-10-10T15:39:30.910Z,23.40
2022-10-10T15:41:57.515Z,23.41
2022-10-10T15:44:23.984Z,23.39
2022-10-10T15:46:50.705Z,23.34
2022-10-10T15:49:17.132Z,23.29
2022-10-10T15:51:45.804Z,23.22
2022-10-10T15:54:13.195Z,23.23
2022-10-10T15:56:40.158Z,23.19
2022-10-10T15:59:08.262Z,23.08
2022-10-10T16:01:35.684Z,22.94
2022-10-10T16:04:03.622Z,22.73
2022-10-10T16:06:30.053Z,22.64
2022-10-10T16:09:16.366Z,22.59
2022-10-10T16:11:43.023Z,22.49
2022-10-10T16:14:10.036Z,22.38
2022-10-10T16:16:36.496Z,22.31
2022-10-10T16:19:03.352Z,22.33
2022-10-10T16:21:30.517Z,22.21
2022-10-10T16:23:58.270Z,22.14
2022-10-10T16:26:29.243Z,22.06
2022-10-10T16:28:56.407Z,22.03
2022-10-10T16:31:25.032Z,21.95
2022-10-10T16:33:51.781Z,21.85
2022-10-10T16:36:28.133Z,21.80
2022-10-10T16:38:57.350Z,21.67
2022-10-10T16:41:46.581Z,21.54
2022-10-10T16:44:13.113Z,21.48
2022-10-10T16:46:39.607Z,21.31
2022-10-10T16:49:06.021Z,21.12
2022-10-10T16:51:32.685Z,21.08
2022-10-10T16:54:01.640Z,21.02
2022-10-10T16:56:28.445Z,20.88
2022-10-10T16:58:54.933Z,20.59
2022-10-10T17:01:23.192Z,20.34
2022-10-10T17:03:50.562Z,19.99
2022-10-10T17:06:19.538Z,19.81
2022-10-10T17:08:47.667Z,19.77
2022-10-10T17:11:14.745Z,19.71
2022-10-10T17:13:42.205Z,19.63
2022-10-10T17:16:47.718Z,19.72
2022-10-10T17:19:00.860Z,19.71
2022-10-10T17:21:27.427Z,19.53
2022-10-10T17:23:54.184Z,19.32
2022-10-10T17:26:26.072Z,19.30
2022-10-10T17:28:57.791Z,19.35
2022-10-10T17:31:24.962Z,19.35
2022-10-10T17:33:54.188Z,19.38
2022-10-10T17:36:24.138Z,19.55
2022-10-10T17:38:51.882Z,19.39
2022-10-10T17:41:20.208Z,19.39
2022-10-10T17:43:46.701Z,19.33
2022-10-10T17:46:40.388Z,19.23
2022-10-10T17:49:09.024Z,18.96
2022-10-10T17:51:36.650Z,18.80
2022-10-10T17:54:04.448Z,18.62
2022-10-10T17:56:31.634Z,18.78
2022-10-10T17:59:00.533Z,18.60
2022-10-10T18:01:27.752Z,18.68
2022-10-10T18:03:54.243Z,18.59
2022-10-10T18:06:22.707Z,18.59
2022-10-10T18:08:51.279Z,18.69
2022-10-10T18:11:20.802Z,18.70
2022-10-10T18:13:47.301Z,18.67
2022-10-10T18:16:16.594Z,18.62
2022-10-10T18:18:50.339Z,18.67
2022-10-10T18:21:19.548Z,18.44
2022-10-10T18:23:46.065Z,18.45
2022-10-10T18:26:24.200Z,18.48
2022-10-10T18:28:52.617Z,18.47
2022-10-10T18:31:32.957Z,18.49
2022-10-10T18:34:00.726Z,18.46
2022-10-10T18:36:30.168Z,18.47
2022-10-10T18:39:05.495Z,18.46
2022-10-10T18:41:34.849Z,18.46
2022-10-10T18:44:06.947Z,18.50
2022-10-10T18:46:34.701Z,18.46
2022-10-10T18:49:02.314Z,18.40
2022-10-10T18:51:29.859Z,18.42
2022-10-10T18:54:07.513Z,18.44
2022-10-10T18:56:36.326Z,18.46
2022-10-10T18:59:04.857Z,18.45
2022-10-10T19:01:36.188Z,18.40
2022-10-10T19:04:05.097Z,18.33
2022-10-10T19:06:31.683Z,18.40
2022-10-10T19:08:59.797Z,18.44
2022-10-10T19:11:32.332Z,18.36
2022-10-10T19:14:00.711Z,18.35
2022-10-10T19:16:27.834Z,18.31
2022-10-10T19:18:58.613Z,18.27
2022-10-10T19:21:27.098Z,18.34
2022-10-10T19:23:53.542Z,18.35
2022-10-10T19:26:20.001Z,18.36
2022-10-10T19:28:46.859Z,18.43
2022-10-10T19:31:16.044Z,18.40
2022-10-10T19:33:43.366Z,18.45
2022-10-10T19:36:11.558Z,18.44
2022-10-10T19:38:40.131Z,18.43
2022-10-10T19:41:08.706Z,18.35
2022-10-10T19:43:35.149Z,18.35
2022-10-10T19:46:06.453Z,18.27
2022-10-10T19:48:33.608Z,18.25
2022-10-10T19:51:04.547Z,18.21
2022-10-10T19:53:33.336Z,18.23
2022-10-10T19:56:04.106Z,18.23
2022-10-10T19:58:30.854Z,18.27
2022-10-10T20:00:57.791Z,18.23
2022-10-10T20:03:24.991Z,18.21
2022-10-10T20:05:51.770Z,18.22
2022-10-10T20:08:20.179Z,18.23
2022-10-10T20:10:46.678Z,18.30
2022-10-10T20:13:15.986Z,18.24
2022-10-10T20:15:47.210Z,18.19
2022-10-10T20:18:13.689Z,18.13
2022-10-10T20:20:47.748Z,18.15
2022-10-10T20:23:15.549Z,18.08
2022-10-10T20:25:43.947Z,18.08
2022-10-10T20:28:12.017Z,18.06
2022-10-10T20:30:41.165Z,17.89
2022-10-10T20:33:08.299Z,17.93
2022-10-10T20:35:35.809Z,18.00
2022-10-10T20:38:04.416Z,17.94
2022-10-10T20:40:31.374Z,18.00
2022-10-10T20:42:57.901Z,17.96
2022-10-10T20:45:24.494Z,17.89
2022-10-10T20:47:50.954Z,17.87
2022-10-10T20:50:17.672Z,17.82
2022-10-10T20:52:44.580Z,17.92
2022-10-10T20:55:11.160Z,17.82
2022-10-10T20:57:38.430Z,17.84
2022-10-10T21:00:06.085Z,17.78
2022-10-10T21:02:33.895Z,17.72
2022-10-10T21:05:00.408Z,17.54
2022-10-10T21:07:29.002Z,17.47
2022-10-10T21:09:55.544Z,17.43
2022-10-10T21:12:22.083Z,17.33
2022-10-10T21:14:48.611Z,17.31
2022-10-10T21:17:15.056Z,17.24
2022-10-10T21:19:41.538Z,17.29
2022-10-10T21:22:08.030Z,17.28
2022-10-10T21:24:34.543Z,17.34
2022-10-10T21:27:00.972Z,17.25
2022-10-10T21:29:27.450Z,17.28
2022-10-10T21:31:53.886Z,17.27
2022-10-10T21:34:20.337Z,17.25
2022-10-10T21:36:47.026Z,17.32
2022-10-10T21:39:14.519Z,17.14
2022-10-10T21:41:41.312Z,17.17
2022-10-10T21:44:08.255Z,17.14
2022-10-10T21:46:37.049Z,17.19
2022-10-10T21:49:11.239Z,17.14
2022-10-10T21:51:45.528Z,17.07
2022-10-10T21:54:12.644Z,16.99
2022-10-10T21:56:39.690Z,16.98
2022-10-10T21:59:06.969Z,16.81
2022-10-10T22:01:34.016Z,16.78
2022-10-10T22:04:01.959Z,16.89
2022-10-10T22:06:28.660Z,16.91
2022-10-10T22:08:58.270Z,16.86
2022-10-10T22:11:26.232Z,16.81
2022-10-10T22:13:53.079Z,16.90
2022-10-10T22:16:20.366Z,16.82
2022-10-10T22:18:47.075Z,16.77
2022-10-10T22:21:15.975Z,16.73
2022-10-10T22:23:43.678Z,16.59
2022-10-10T22:26:12.154Z,16.64
2022-10-10T22:28:39.085Z,16.65
2022-10-10T22:31:08.047Z,16.61
2022-10-10T22:33:34.645Z,16.72
2022-10-10T22:36:01.288Z,16.83
2022-10-10T22:38:27.889Z,17.06
2022-10-10T22:40:54.322Z,17.12
2022-10-10T22:43:24.857Z,17.07
2022-10-10T22:45:53.191Z,17.14
2022-10-10T22:48:19.606Z,16.97
2022-10-10T22:50:46.104Z,16.73
2022-10-10T22:53:12.676Z,16.83
2022-10-10T22:55:39.123Z,16.96
2022-10-10T22:58:05.576Z,16.97
2022-10-10T23:00:32.069Z,17.00
2022-10-10T23:02:59.125Z,16.90
2022-10-10T23:05:26.375Z,16.65
2022-10-10T23:07:52.830Z,16.65
2022-10-10T23:10:19.435Z,16.71
2022-10-10T23:12:45.981Z,16.95
2022-10-10T23:15:12.432Z,16.90
2022-10-10T23:17:38.962Z,16.87
2022-10-10T23:20:06.154Z,16.88
2022-10-10T23:22:32.627Z,17.15
2022-10-10T23:24:59.058Z,17.02
2022-10-10T23:27:25.556Z,17.01
2022-10-10T23:29:51.994Z,17.07
2022-10-10T23:32:18.433Z,17.04
2022-10-10T23:34:44.840Z,16.96
2022-10-10T23:37:11.448Z,16.81
2022-10-10T23:39:41.630Z,16.75
2022-10-10T23:42:08.062Z,16.65
2022-10-10T23:44:34.575Z,16.85
2022-10-10T23:47:01.051Z,16.88
2022-10-10T23:49:27.489Z,16.80
2022-10-10T23:51:53.934Z,16.80
2022-10-10T23:54:20.761Z,16.64
2022-10-10T23:56:47.193Z,16.71
2022-10-10T23:59:13.664Z,16.70
